Time;durP1;ratioP1;P1;durP2;ratioP2;P2;SDS_P1;SDS_P2;PMS_P1;PMS_P2;Temp;Humidity;BMP_temperature;BMP_pressure;BME280_temperature;BME280_humidity;BME280_pressure;Samples;Min_cycle;Max_cycle;Signal;HPM_P1;HPM_P2
2022/05/14 00:00:17;;;;;;;5.22;4.82;;;17.90;99.90;;;;;;5010357;28;20555;-70
2022/05/14 00:02:45;;;;;;;6.20;5.70;;;17.80;99.90;;;;;;5004705;28;20196;-71
2022/05/14 00:05:12;;;;;;;6.35;5.50;;;17.70;99.90;;;;;;5007986;28;20203;-70
2022/05/14 00:07:40;;;;;;;6.00;5.50;;;17.60;99.90;;;;;;5007293;28;20262;-70
2022/05/14 00:10:09;;;;;;;6.25;5.75;;;17.60;99.90;;;;;;5006738;28;20193;-70
2022/05/14 00:15:20;;;;;;;6.28;5.68;;;17.40;99.90;;;;;;5008216;28;20585;-70
2022/05/14 00:17:47;;;;;;;6.47;5.88;;;17.40;99.90;;;;;;5006926;28;20226;-70
2022/05/14 00:20:16;;;;;;;6.55;5.95;;;17.30;99.90;;;;;;5004706;28;20194;-70
2022/05/14 00:22:44;;;;;;;6.72;6.13;;;17.30;99.90;;;;;;5004599;28;20204;-70
2022/05/14 00:25:12;;;;;;;6.80;6.20;;;17.30;99.90;;;;;;5001511;28;20243;-70
2022/05/14 00:27:43;;;;;;;6.13;5.63;;;17.20;99.90;;;;;;5005695;28;20196;-70
2022/05/14 00:30:12;;;;;;;6.80;6.20;;;17.20;99.90;;;;;;5011727;28;20259;-70
2022/05/14 00:32:40;;;;;;;6.05;5.60;;;17.20;99.90;;;;;;5002706;28;20546;-70
2022/05/14 00:35:09;;;;;;;6.28;5.78;;;17.10;99.90;;;;;;4996852;28;20307;-70
2022/05/14 00:37:36;;;;;;;7.00;6.40;;;17.10;99.90;;;;;;5005075;28;20224;-70
2022/05/14 00:40:08;;;;;;;6.45;5.95;;;17.10;99.90;;;;;;4995236;28;20698;-70
2022/05/14 00:42:35;;;;;;;6.45;5.95;;;17.00;99.90;;;;;;5001632;28;20858;-70
2022/05/14 00:45:03;;;;;;;6.80;6.20;;;17.10;99.90;;;;;;5000854;28;20747;-70
2022/05/14 00:47:35;;;;;;;6.10;5.60;;;17.00;99.90;;;;;;5007122;28;20223;-70
2022/05/14 00:50:03;;;;;;;6.55;6.00;;;17.10;99.90;;;;;;5005866;28;20200;-70
2022/05/14 00:52:34;;;;;;;6.47;5.97;;;17.10;99.90;;;;;;5002354;28;20251;-70
2022/05/14 00:55:03;;;;;;;6.22;5.72;;;17.10;99.90;;;;;;5002616;28;20447;-70
2022/05/14 00:57:36;;;;;;;6.15;5.65;;;17.10;99.90;;;;;;5003102;28;20231;-70
2022/05/14 01:00:07;;;;;;;7.25;6.28;;;17.00;99.90;;;;;;5004277;28;20250;-69
2022/05/14 01:02:35;;;;;;;6.00;5.40;;;17.00;99.90;;;;;;5002299;28;20240;-69
2022/05/14 01:05:03;;;;;;;5.88;5.38;;;17.00;99.90;;;;;;5005762;28;20200;-70
2022/05/14 01:07:31;;;;;;;5.50;5.10;;;17.00;99.90;;;;;;5002536;28;20262;-69
2022/05/14 01:10:01;;;;;;;6.10;5.60;;;17.00;99.90;;;;;;5005759;28;20192;-70
2022/05/14 01:12:30;;;;;;;6.05;5.55;;;17.00;99.90;;;;;;5002471;28;20216;-69
2022/05/14 01:15:13;;;;;;;6.00;5.50;;;17.00;99.90;;;;;;5000460;28;20203;-69
2022/05/14 01:17:40;;;;;;;6.32;5.72;;;17.00;99.90;;;;;;5003019;28;20898;-69
2022/05/14 01:20:09;;;;;;;5.82;5.43;;;17.00;99.90;;;;;;5001096;28;20196;-71
2022/05/14 01:22:48;;;;;;;6.15;5.65;;;17.00;99.90;;;;;;5003542;28;20631;-69
2022/05/14 01:28:10;;;;;;;6.50;5.97;;;16.90;99.90;;;;;;5002543;28;20270;-69
2022/05/14 01:30:46;;;;;;;6.07;5.68;;;16.90;99.90;;;;;;5002176;28;20200;-70
2022/05/14 01:33:13;;;;;;;6.20;5.70;;;16.90;99.90;;;;;;5003503;28;20311;-69
2022/05/14 01:35:42;;;;;;;6.22;5.82;;;16.90;99.90;;;;;;4999886;28;20431;-70
2022/05/14 01:38:09;;;;;;;6.20;5.70;;;16.80;99.90;;;;;;5004251;28;20655;-69
2022/05/14 01:40:36;;;;;;;6.03;5.53;;;16.80;99.90;;;;;;5001652;28;20219;-70
2022/05/14 01:43:03;;;;;;;5.75;5.25;;;16.80;99.90;;;;;;5000848;28;20594;-69
2022/05/14 01:45:32;;;;;;;6.03;5.53;;;16.80;99.90;;;;;;5030616;22;20228;-75
2022/05/14 01:47:59;;;;;;;5.38;4.97;;;16.80;99.90;;;;;;5003900;28;20254;-76
2022/05/14 01:50:26;;;;;;;6.15;5.65;;;16.80;99.90;;;;;;5008717;28;20261;-76
2022/05/14 01:52:53;;;;;;;5.65;5.18;;;16.80;99.90;;;;;;5008549;28;20733;-75
2022/05/14 01:55:20;;;;;;;6.13;5.40;;;16.80;99.90;;;;;;5009228;28;20228;-75
2022/05/14 01:57:47;;;;;;;6.20;5.70;;;16.70;99.90;;;;;;5006508;28;20636;-75
2022/05/14 02:00:17;;;;;;;6.57;6.03;;;16.70;99.90;;;;;;4986305;28;20806;-76
2022/05/14 02:02:45;;;;;;;6.05;5.55;;;16.70;99.90;;;;;;4987699;28;20288;-76
2022/05/14 02:05:12;;;;;;;5.63;5.13;;;16.60;99.90;;;;;;5004200;28;20224;-75
2022/05/14 02:07:39;;;;;;;6.72;5.28;;;16.70;99.90;;;;;;5003877;28;20258;-75
2022/05/14 02:10:08;;;;;;;5.07;4.68;;;16.70;99.90;;;;;;5008706;28;20227;-75
2022/05/14 02:12:35;;;;;;;6.00;5.50;;;16.70;99.90;;;;;;5001916;28;20205;-73
2022/05/14 02:15:03;;;;;;;5.72;5.32;;;16.70;99.90;;;;;;5004771;28;20220;-75
2022/05/14 02:17:30;;;;;;;5.22;4.75;;;16.80;99.90;;;;;;5007554;28;20216;-76
2022/05/14 02:19:58;;;;;;;5.53;5.13;;;16.80;99.90;;;;;;5004633;28;20227;-75
2022/05/14 02:22:25;;;;;;;6.05;5.55;;;16.70;99.90;;;;;;5005691;28;20197;-75
2022/05/14 02:24:54;;;;;;;5.70;5.30;;;16.70;99.90;;;;;;5003793;28;20220;-75
2022/05/14 02:27:21;;;;;;;5.93;5.45;;;16.70;99.90;;;;;;5002237;28;20785;-75
2022/05/14 02:29:54;;;;;;;5.75;5.22;;;16.70;99.90;;;;;;5008020;28;20732;-75
2022/05/14 02:32:24;;;;;;;5.82;5.32;;;16.70;99.90;;;;;;5009120;28;20224;-76
2022/05/14 02:34:51;;;;;;;5.72;5.32;;;16.80;99.90;;;;;;5002719;28;20304;-74
2022/05/14 02:37:22;;;;;;;6.00;5.40;;;16.80;99.90;;;;;;5009237;28;20208;-76
2022/05/14 02:39:49;;;;;;;6.43;5.93;;;16.80;99.90;;;;;;5005766;28;20325;-76
2022/05/14 02:42:17;;;;;;;6.05;5.50;;;16.80;99.90;;;;;;5019281;28;20211;-75
2022/05/14 02:44:44;;;;;;;6.32;5.75;;;16.70;99.90;;;;;;5006051;28;20228;-76
2022/05/14 02:47:11;;;;;;;6.50;6.00;;;16.60;99.90;;;;;;5005555;28;20262;-76
2022/05/14 02:49:38;;;;;;;7.18;6.28;;;16.50;99.90;;;;;;5009460;28;20585;-75
2022/05/14 02:52:06;;;;;;;6.53;6.03;;;16.40;99.90;;;;;;5007513;28;20200;-75
2022/05/14 02:54:35;;;;;;;6.70;6.18;;;16.30;99.90;;;;;;5008241;28;20617;-75
2022/05/14 02:57:02;;;;;;;5.05;4.65;;;16.30;99.90;;;;;;5003040;28;20200;-75
2022/05/14 02:59:29;;;;;;;6.25;5.75;;;16.40;99.90;;;;;;5008943;28;20232;-75
2022/05/14 03:01:56;;;;;;;6.28;5.78;;;16.40;99.90;;;;;;5008115;28;20910;-76
2022/05/14 03:04:25;;;;;;;6.53;5.95;;;16.40;99.90;;;;;;5006695;28;21025;-75
2022/05/14 03:06:53;;;;;;;6.25;5.75;;;16.40;99.90;;;;;;5008459;28;20200;-75
2022/05/14 03:09:20;;;;;;;5.82;5.32;;;16.50;99.90;;;;;;5007932;28;20220;-75
2022/05/14 03:11:49;;;;;;;6.22;5.82;;;16.40;99.90;;;;;;5006245;28;20593;-75
2022/05/14 03:14:17;;;;;;;5.72;5.22;;;16.50;99.90;;;;;;5005618;28;20220;-75
2022/05/14 03:16:45;;;;;;;6.18;5.68;;;16.50;99.90;;;;;;5008110;28;20207;-75
2022/05/14 03:19:12;;;;;;;6.35;5.85;;;16.40;99.90;;;;;;5007035;28;20220;-76
2022/05/14 03:21:40;;;;;;;6.10;5.60;;;16.50;99.90;;;;;;5006824;28;20196;-75
2022/05/14 03:24:08;;;;;;;7.90;5.68;;;16.50;99.90;;;;;;5007523;28;20231;-75
2022/05/14 03:26:35;;;;;;;6.10;5.60;;;16.50;99.90;;;;;;5004106;28;20243;-75
2022/05/14 03:29:04;;;;;;;6.53;5.93;;;16.50;99.90;;;;;;5007937;28;20271;-75
2022/05/14 03:31:32;;;;;;;6.32;5.82;;;16.60;99.90;;;;;;5006661;28;20213;-76
2022/05/14 03:33:59;;;;;;;6.50;6.00;;;16.60;99.90;;;;;;5020869;28;20242;-76
2022/05/14 03:36:27;;;;;;;6.65;6.15;;;16.60;99.90;;;;;;5007576;28;20229;-75
2022/05/14 03:38:54;;;;;;;7.38;6.68;;;16.60;99.90;;;;;;5007314;28;20219;-75
2022/05/14 03:41:22;;;;;;;7.63;6.43;;;16.60;99.90;;;;;;5004864;28;20759;-75
2022/05/14 03:43:49;;;;;;;6.75;6.13;;;16.60;99.90;;;;;;5002098;28;20286;-75
2022/05/14 03:46:18;;;;;;;6.80;6.03;;;16.60;99.90;;;;;;5004085;28;20223;-75
2022/05/14 03:48:45;;;;;;;6.82;6.22;;;16.50;99.90;;;;;;5009055;28;20254;-75
2022/05/14 03:51:12;;;;;;;6.28;5.78;;;16.50;99.90;;;;;;5006470;28;20207;-75
2022/05/14 03:53:40;;;;;;;7.38;6.78;;;16.50;99.90;;;;;;5000925;28;20551;-75
2022/05/14 03:56:07;;;;;;;6.72;6.20;;;16.50;99.90;;;;;;5002547;28;20255;-75
2022/05/14 03:58:35;;;;;;;7.03;6.43;;;16.50;99.90;;;;;;5008047;28;20223;-75
2022/05/14 04:01:03;;;;;;;7.05;6.53;;;16.50;99.90;;;;;;5004295;28;20659;-75
2022/05/14 04:03:33;;;;;;;6.78;6.28;;;16.50;99.90;;;;;;5006772;28;20211;-76
2022/05/14 04:06:00;;;;;;;6.40;5.90;;;16.50;99.90;;;;;;4998421;28;20279;-75
2022/05/14 04:08:27;;;;;;;6.22;5.82;;;16.50;99.90;;;;;;5004221;28;20204;-75
2022/05/14 04:10:54;;;;;;;6.00;5.60;;;16.60;99.90;;;;;;5003672;28;20725;-76
2022/05/14 04:13:22;;;;;;;6.63;6.03;;;16.60;99.90;;;;;;5006690;28;20234;-76
2022/05/14 04:15:49;;;;;;;6.57;6.07;;;16.70;99.90;;;;;;5004041;28;20261;-75
2022/05/14 04:18:20;;;;;;;5.82;5.43;;;16.70;99.90;;;;;;5002522;28;20220;-75
2022/05/14 04:20:49;;;;;;;7.03;6.43;;;16.70;99.90;;;;;;5007085;28;20278;-75
2022/05/14 04:23:16;;;;;;;6.65;6.07;;;16.80;99.90;;;;;;5003847;28;20208;-75
2022/05/14 04:25:43;;;;;;;6.65;6.15;;;16.80;99.90;;;;;;5007728;28;20224;-76
2022/05/14 04:28:10;;;;;;;6.53;6.03;;;16.90;99.90;;;;;;5012846;28;20204;-76
2022/05/14 04:30:37;;;;;;;7.38;6.78;;;16.90;99.90;;;;;;5006981;28;20220;-76
2022/05/14 04:33:04;;;;;;;6.55;6.05;;;17.00;99.90;;;;;;5000570;28;20557;-75
2022/05/14 04:35:32;;;;;;;7.20;6.60;;;17.00;99.90;;;;;;5005306;28;20224;-75
2022/05/14 04:38:00;;;;;;;6.90;6.30;;;17.00;99.90;;;;;;5004980;28;20227;-75
2022/05/14 04:40:27;;;;;;;7.30;6.70;;;17.10;99.90;;;;;;5003965;28;20228;-76
2022/05/14 04:42:54;;;;;;;7.53;7.00;;;17.00;99.90;;;;;;5006776;28;20201;-75
2022/05/14 04:45:22;;;;;;;7.57;6.88;;;17.00;99.90;;;;;;5003707;28;20633;-75
2022/05/14 04:47:49;;;;;;;7.78;7.07;;;17.00;99.90;;;;;;5002302;28;20216;-75
2022/05/14 04:50:17;;;;;;;7.80;7.10;;;17.00;99.90;;;;;;5004586;28;20279;-76
2022/05/14 04:52:44;;;;;;;8.50;7.55;;;17.00;99.90;;;;;;5003486;28;20193;-75
2022/05/14 04:55:13;;;;;;;7.63;7.03;;;17.00;99.90;;;;;;5001941;28;20228;-75
2022/05/14 04:57:43;;;;;;;8.65;7.75;;;17.10;99.90;;;;;;5004722;28;20200;-76
2022/05/14 05:00:13;;;;;;;8.05;7.35;;;17.10;99.90;;;;;;5004273;28;20223;-76
2022/05/14 05:05:25;;;;;;;9.23;8.38;;;17.40;99.90;;;;;;5005272;28;20219;-75
2022/05/14 05:07:52;;;;;;;8.85;8.05;;;17.40;99.90;;;;;;5003591;28;20196;-75
2022/05/14 05:10:20;;;;;;;8.80;8.00;;;17.50;99.90;;;;;;5004873;28;20216;-75
2022/05/14 05:12:47;;;;;;;7.20;6.70;;;17.60;99.90;;;;;;5001632;28;20254;-76
2022/05/14 05:15:15;;;;;;;9.00;8.20;;;17.90;99.90;;;;;;5006668;28;20349;-75
2022/05/14 05:17:42;;;;;;;8.55;7.85;;;18.10;99.90;;;;;;5017786;28;20192;-75
2022/05/14 05:20:10;;;;;;;7.82;7.03;;;18.30;99.90;;;;;;5019319;28;20232;-75
2022/05/14 05:22:38;;;;;;;7.28;6.65;;;18.50;99.90;;;;;;5003450;28;20207;-75
2022/05/14 05:25:06;;;;;;;8.13;7.43;;;18.60;99.90;;;;;;4999844;28;20727;-76
2022/05/14 05:27:35;;;;;;;7.60;6.90;;;18.70;99.90;;;;;;5003366;28;20802;-76
2022/05/14 05:30:02;;;;;;;7.38;6.68;;;18.80;99.90;;;;;;5000408;28;21018;-76
2022/05/14 05:32:29;;;;;;;7.45;6.75;;;19.00;99.90;;;;;;5004864;28;20204;-76
2022/05/14 05:34:57;;;;;;;8.27;7.47;;;19.00;99.90;;;;;;5005612;28;20247;-76
2022/05/14 05:37:24;;;;;;;7.43;6.72;;;19.10;99.90;;;;;;5001728;28;20197;-76
2022/05/14 05:39:51;;;;;;;7.35;6.65;;;19.20;99.90;;;;;;5007521;28;20219;-76
2022/05/14 05:42:18;;;;;;;7.22;6.63;;;19.30;99.90;;;;;;5001773;28;20741;-76
2022/05/14 05:44:46;;;;;;;7.68;7.07;;;19.40;99.90;;;;;;5007342;28;20220;-76
2022/05/14 05:47:13;;;;;;;7.45;6.95;;;19.40;99.90;;;;;;5010369;28;20205;-75
2022/05/14 05:49:42;;;;;;;7.43;6.72;;;19.40;99.90;;;;;;5013160;28;20216;-76
2022/05/14 05:52:11;;;;;;;7.55;6.68;;;19.40;99.90;;;;;;5000674;28;20635;-76
2022/05/14 05:57:19;;;;;;;7.35;6.75;;;19.20;99.90;;;;;;4993775;28;20267;-76
2022/05/14 05:59:48;;;;;;;7.18;6.57;;;19.20;99.90;;;;;;5011066;28;20218;-75
2022/05/14 06:02:15;;;;;;;7.20;6.63;;;19.20;99.90;;;;;;5007677;28;20189;-76
2022/05/14 06:04:42;;;;;;;6.72;6.22;;;19.30;99.90;;;;;;5007708;28;20692;-76
2022/05/14 06:07:09;;;;;;;7.35;6.70;;;19.30;99.90;;;;;;5006402;28;20197;-76
2022/05/14 06:09:37;;;;;;;6.38;5.78;;;19.50;99.90;;;;;;5007867;28;20234;-76
2022/05/14 06:12:04;;;;;;;6.72;6.22;;;19.50;99.90;;;;;;5019896;28;20188;-77
2022/05/14 06:14:31;;;;;;;7.55;6.85;;;19.60;99.90;;;;;;5013194;28;20235;-75
2022/05/14 06:17:00;;;;;;;7.95;7.30;;;19.60;99.90;;;;;;5001238;28;20247;-76
2022/05/14 06:19:27;;;;;;;8.63;7.82;;;19.60;99.90;;;;;;5007051;28;20769;-75
2022/05/14 06:21:54;;;;;;;9.50;8.20;;;19.50;99.90;;;;;;5007607;28;20534;-76
2022/05/14 06:24:21;;;;;;;9.10;8.40;;;19.40;99.90;;;;;;5003688;28;22066;-76
2022/05/14 06:26:48;;;;;;;9.05;8.27;;;19.20;99.90;;;;;;5010302;28;20192;-75
2022/05/14 06:29:15;;;;;;;9.35;8.48;;;19.30;99.90;;;;;;5003469;28;20188;-75
2022/05/14 06:31:42;;;;;;;9.80;9.00;;;19.50;99.90;;;;;;5014520;28;20241;-76
2022/05/14 06:34:11;;;;;;;9.45;8.65;;;19.70;99.90;;;;;;5010368;28;20679;-76
2022/05/14 06:36:38;;;;;;;9.13;8.38;;;19.80;99.90;;;;;;5004454;28;20276;-76
2022/05/14 06:39:06;;;;;;;9.45;8.63;;;20.00;99.90;;;;;;5009565;28;20236;-76
2022/05/14 06:41:33;;;;;;;11.27;9.18;;;20.00;99.90;;;;;;5007116;28;20223;-76
2022/05/14 06:44:00;;;;;;;9.25;8.35;;;19.60;99.90;;;;;;5011111;28;20189;-76
2022/05/14 06:46:27;;;;;;;7.40;6.80;;;19.50;99.90;;;;;;5010423;28;20227;-75
2022/05/14 06:48:54;;;;;;;8.88;8.02;;;19.60;99.90;;;;;;5010690;28;20188;-76
2022/05/14 06:51:27;;;;;;;8.73;7.90;;;19.80;99.90;;;;;;5007020;28;20720;-76
2022/05/14 06:53:58;;;;;;;9.18;8.38;;;19.90;99.90;;;;;;5011610;28;20196;-76
2022/05/14 06:56:27;;;;;;;8.13;7.43;;;20.00;99.90;;;;;;5003905;28;20234;-76
2022/05/14 06:58:56;;;;;;;8.68;7.88;;;19.80;99.90;;;;;;5008408;28;20860;-76
2022/05/14 07:01:23;;;;;;;8.10;7.43;;;19.70;99.90;;;;;;5002485;28;20741;-76
2022/05/14 07:06:40;;;;;;;8.43;7.72;;;19.60;99.90;;;;;;5013651;28;20807;-76
2022/05/14 07:09:09;;;;;;;9.10;8.30;;;19.40;99.90;;;;;;5004563;28;20192;-76
2022/05/14 07:11:37;;;;;;;8.93;8.23;;;19.30;99.90;;;;;;5005262;28;20231;-76
2022/05/14 07:14:05;;;;;;;8.25;7.55;;;19.20;99.90;;;;;;5008211;28;20670;-76
2022/05/14 07:16:33;;;;;;;8.20;7.40;;;19.20;99.90;;;;;;5004339;28;20315;-76
2022/05/14 07:19:00;;;;;;;8.07;7.47;;;19.30;99.90;;;;;;5004552;28;20215;-76
2022/05/14 07:21:27;;;;;;;8.35;7.70;;;19.60;99.90;;;;;;5006533;28;20707;-76
2022/05/14 07:23:56;;;;;;;9.57;8.68;;;20.20;99.90;;;;;;5006111;28;20643;-77
2022/05/14 07:26:23;;;;;;;8.93;8.23;;;20.50;99.90;;;;;;5005765;28;20216;-75
2022/05/14 07:28:51;;;;;;;8.80;8.07;;;20.40;99.90;;;;;;5003387;28;20206;-76
2022/05/14 07:31:18;;;;;;;8.10;7.40;;;20.50;99.90;;;;;;5002654;28;20243;-75
2022/05/14 07:33:45;;;;;;;7.65;6.95;;;20.50;99.90;;;;;;5001022;28;20196;-76
2022/05/14 07:36:17;;;;;;;9.57;8.73;;;20.40;99.90;;;;;;4999592;28;20224;-77
2022/05/14 07:38:45;;;;;;;9.35;8.55;;;20.60;99.90;;;;;;5003582;28;20227;-76
2022/05/14 07:41:16;;;;;;;8.88;7.97;;;20.60;99.90;;;;;;5003953;28;20748;-75
2022/05/14 07:43:46;;;;;;;9.32;8.52;;;21.00;99.90;;;;;;5000955;28;20195;-76
2022/05/14 07:46:20;;;;;;;9.25;8.55;;;21.30;99.90;;;;;;5020651;23;20219;-72
2022/05/14 07:48:48;;;;;;;7.82;7.22;;;21.50;99.90;;;;;;5017042;28;20196;-72
2022/05/14 07:51:16;;;;;;;9.70;8.90;;;21.20;99.90;;;;;;5019134;28;20216;-71
2022/05/14 07:53:43;;;;;;;8.68;7.88;;;20.90;99.90;;;;;;5019155;28;20561;-73
2022/05/14 07:56:11;;;;;;;8.50;7.72;;;20.70;99.90;;;;;;5016697;28;20253;-73
2022/05/14 07:58:42;;;;;;;8.80;8.00;;;20.70;99.90;;;;;;5017189;28;20254;-72
2022/05/14 08:01:09;;;;;;;8.60;7.90;;;21.00;99.90;;;;;;5018048;28;20227;-72
2022/05/14 08:03:36;;;;;;;9.40;7.90;;;21.30;99.90;;;;;;5020911;28;20195;-72
2022/05/14 08:06:05;;;;;;;8.35;7.65;;;21.70;99.90;;;;;;5017375;28;20303;-72
2022/05/14 08:08:32;;;;;;;8.80;8.00;;;22.00;99.90;;;;;;5013928;28;20200;-72
2022/05/14 08:10:59;;;;;;;9.20;8.30;;;22.30;99.90;;;;;;5018582;28;20569;-72
2022/05/14 08:13:26;;;;;;;8.18;7.35;;;22.50;99.90;;;;;;5017363;28;20196;-72
2022/05/14 08:15:55;;;;;;;7.05;6.43;;;22.60;99.90;;;;;;5021811;28;20219;-73
2022/05/14 08:18:22;;;;;;;8.57;7.68;;;22.60;99.90;;;;;;5016802;28;20204;-72
2022/05/14 08:20:51;;;;;;;8.18;7.47;;;22.70;99.90;;;;;;5021340;28;20230;-73
2022/05/14 08:26:05;;;;;;;7.90;7.28;;;23.00;99.90;;;;;;5015800;28;20364;-74
2022/05/14 08:28:33;;;;;;;8.82;8.13;;;23.10;99.90;;;;;;5018459;28;20199;-73
2022/05/14 08:31:01;;;;;;;8.95;8.13;;;23.10;99.90;;;;;;5012955;28;20274;-73
2022/05/14 08:33:29;;;;;;;9.45;8.43;;;23.10;99.90;;;;;;5015597;28;20203;-72
2022/05/14 08:35:56;;;;;;;8.07;7.28;;;23.10;99.90;;;;;;5018678;28;20239;-73
2022/05/14 08:38:23;;;;;;;7.75;6.93;;;23.00;99.90;;;;;;5015737;28;20666;-73
2022/05/14 08:40:57;;;;;;;10.40;8.25;;;23.10;99.90;;;;;;5016063;28;20219;-73
2022/05/14 08:43:29;;;;;;;9.15;8.35;;;23.20;99.90;;;;;;5017080;28;20195;-73
2022/05/14 08:45:56;;;;;;;8.18;7.47;;;23.30;99.90;;;;;;5019166;28;20223;-73
2022/05/14 08:48:29;;;;;;;8.75;8.05;;;23.40;99.90;;;;;;5017439;28;20196;-73
2022/05/14 08:51:03;;;;;;;9.07;8.18;;;23.50;99.90;;;;;;5017423;28;20270;-73
2022/05/14 08:53:32;;;;;;;9.27;8.18;;;23.50;99.90;;;;;;5020744;28;20196;-73
2022/05/14 08:56:36;;;;;;;8.60;7.80;;;23.50;99.90;;;;;;5018080;28;20227;-73
2022/05/14 08:59:33;;;;;;;9.05;8.25;;;23.60;99.90;;;;;;5015830;28;20302;-73
2022/05/14 09:02:03;;;;;;;9.15;8.25;;;23.60;99.90;;;;;;5007774;28;20222;-73
2022/05/14 09:04:32;;;;;;;9.98;8.98;;;23.60;99.90;;;;;;5016762;28;20208;-73
2022/05/14 09:06:59;;;;;;;8.10;7.50;;;23.60;99.90;;;;;;5017931;28;20228;-73
2022/05/14 09:09:26;;;;;;;9.75;8.88;;;23.60;99.90;;;;;;5022685;28;20200;-73
2022/05/14 09:11:56;;;;;;;8.20;7.50;;;23.70;99.90;;;;;;5014601;28;20230;-73
2022/05/14 09:14:28;;;;;;;8.40;7.65;;;24.00;99.90;;;;;;5015400;28;20239;-73
2022/05/14 09:17:05;;;;;;;8.80;8.00;;;24.20;99.90;;;;;;5013815;28;20234;-73
2022/05/14 09:19:37;;;;;;;7.40;6.78;;;24.20;99.90;;;;;;5017956;28;20220;-73
2022/05/14 09:22:19;;;;;;;8.48;7.78;;;24.40;99.90;;;;;;5016135;28;20227;-73
2022/05/14 09:24:51;;;;;;;7.88;6.55;;;24.40;99.90;;;;;;5016527;28;20193;-73
2022/05/14 09:27:24;;;;;;;6.25;5.75;;;24.40;99.90;;;;;;5013292;28;20227;-74
2022/05/14 09:29:55;;;;;;;7.97;7.32;;;24.50;99.90;;;;;;5016081;28;20195;-73
2022/05/14 09:32:33;;;;;;;7.30;6.70;;;24.70;99.90;;;;;;5019096;28;20841;-74
2022/05/14 09:35:09;;;;;;;7.80;6.95;;;25.10;99.90;;;;;;5015124;28;20210;-74
2022/05/14 09:37:36;;;;;;;7.63;7.03;;;25.40;99.90;;;;;;5015873;28;20199;-74
2022/05/14 09:40:10;;;;;;;7.40;6.80;;;25.50;99.90;;;;;;5017805;28;20615;-74
2022/05/14 09:42:42;;;;;;;9.10;7.15;;;25.70;99.90;;;;;;5016860;28;20196;-74
2022/05/14 09:45:25;;;;;;;7.28;6.63;;;25.80;99.90;;;;;;5015828;28;20242;-73
2022/05/14 09:47:52;;;;;;;7.53;6.93;;;25.50;99.90;;;;;;5012668;28;20209;-74
2022/05/14 09:50:24;;;;;;;7.90;7.03;;;25.20;99.90;;;;;;5015923;28;20220;-74
2022/05/14 09:53:01;;;;;;;6.60;6.00;;;25.00;99.90;;;;;;5016344;28;20202;-74
2022/05/14 09:55:51;;;;;;;6.75;6.15;;;25.20;99.90;;;;;;5011892;28;20227;-74
2022/05/14 09:58:28;;;;;;;7.28;6.57;;;25.60;99.90;;;;;;5019437;28;20634;-74
2022/05/14 10:01:04;;;;;;;6.90;6.35;;;25.80;99.90;;;;;;5016835;28;20242;-73
2022/05/14 10:03:58;;;;;;;6.70;6.20;;;25.50;99.90;;;;;;5011238;28;20231;-73
2022/05/14 10:06:36;;;;;;;6.50;5.90;;;25.40;99.90;;;;;;5018904;28;20235;-74
2022/05/14 10:09:27;;;;;;;7.68;6.82;;;25.50;99.90;;;;;;5021526;28;20199;-74
2022/05/14 10:12:01;;;;;;;7.80;7.15;;;25.70;99.90;;;;;;5016454;28;20610;-73
2022/05/14 10:14:37;;;;;;;7.97;7.38;;;26.10;99.90;;;;;;5018711;28;20203;-74
2022/05/14 10:17:20;;;;;;;8.25;7.45;;;26.10;99.90;;;;;;5017778;28;20258;-73
2022/05/14 10:20:19;;;;;;;10.10;7.10;;;25.90;99.90;;;;;;5018221;28;20286;-73
2022/05/14 10:28:52;;;;;;;8.40;7.70;;;25.70;99.90;;;;;;5018953;28;20192;-74
2022/05/14 10:31:26;;;;;;;7.70;7.10;;;25.30;99.90;;;;;;5011663;28;20278;-74
2022/05/14 10:33:58;;;;;;;6.75;6.15;;;24.90;99.90;;;;;;4997243;28;20580;-74
2022/05/14 10:36:34;;;;;;;6.88;6.38;;;24.70;99.90;;;;;;4999317;28;20745;-74
2022/05/14 10:39:08;;;;;;;6.32;5.78;;;24.70;99.90;;;;;;5000239;28;20294;-75
2022/05/14 10:41:40;;;;;;;6.60;6.00;;;24.80;99.90;;;;;;4997482;28;20225;-74
2022/05/14 10:44:13;;;;;;;6.90;5.80;;;25.00;99.90;;;;;;4998851;28;20210;-73
2022/05/14 10:46:42;;;;;;;6.25;5.68;;;25.00;99.90;;;;;;4997785;28;20977;-75
2022/05/14 10:49:16;;;;;;;6.38;5.78;;;25.30;99.90;;;;;;4995993;28;20201;-75
2022/05/14 10:51:46;;;;;;;6.28;5.82;;;25.60;99.90;;;;;;5002951;28;20208;-75
2022/05/14 10:54:18;;;;;;;7.47;6.78;;;25.60;99.90;;;;;;5001342;28;20757;-75
2022/05/14 10:56:56;;;;;;;7.03;6.32;;;25.70;99.90;;;;;;5010909;28;20223;-75
2022/05/14 10:59:34;;;;;;;7.22;6.00;;;26.20;99.90;;;;;;5024156;28;20503;-76
2022/05/14 11:02:05;;;;;;;7.20;6.60;;;26.90;99.90;;;;;;5021889;28;20231;-75
2022/05/14 11:04:35;;;;;;;7.32;6.63;;;26.90;99.90;;;;;;5021758;28;20207;-75
2022/05/14 11:07:04;;;;;;;6.15;5.55;;;26.80;99.90;;;;;;5021445;28;20226;-75
2022/05/14 11:09:42;;;;;;;6.90;6.20;;;27.30;99.90;;;;;;5026786;28;20204;-75
2022/05/14 11:12:27;;;;;;;7.30;6.65;;;27.90;99.90;;;;;;5022012;28;20785;-75
2022/05/14 11:14:57;;;;;;;6.30;5.80;;;28.00;99.90;;;;;;5023962;28;20195;-74
2022/05/14 11:17:25;;;;;;;7.00;6.38;;;27.30;99.90;;;;;;5016879;28;20220;-73
2022/05/14 11:20:06;;;;;;;6.45;5.85;;;26.90;99.90;;;;;;5026087;28;20198;-74
2022/05/14 11:22:36;;;;;;;5.65;5.15;;;26.50;99.90;;;;;;5016982;28;20215;-73
2022/05/14 11:25:12;;;;;;;6.80;5.97;;;26.50;99.90;;;;;;5020308;28;20251;-73
2022/05/14 11:27:41;;;;;;;7.45;5.97;;;26.70;99.90;;;;;;5006784;28;20245;-74
2022/05/14 11:30:11;;;;;;;5.45;4.95;;;26.90;99.90;;;;;;5006438;28;20243;-73
2022/05/14 11:32:44;;;;;;;5.95;5.32;;;27.10;99.90;;;;;;5005186;28;20224;-73
2022/05/14 11:35:11;;;;;;;7.07;5.80;;;27.70;99.90;;;;;;5005487;28;20200;-74
2022/05/14 11:37:43;;;;;;;6.05;5.45;;;28.10;99.90;;;;;;5002492;28;20224;-75
2022/05/14 11:40:28;;;;;;;5.50;5.00;;;28.60;99.90;;;;;;5004380;28;20252;-76
2022/05/14 11:43:08;;;;;;;6.15;4.60;;;28.80;99.90;;;;;;5000977;28;20220;-76
2022/05/14 11:45:37;;;;;;;5.90;4.97;;;28.70;99.90;;;;;;5001561;28;20221;-76
2022/05/14 11:48:08;;;;;;;7.45;4.95;;;28.40;99.90;;;;;;5020630;28;20212;-77
2022/05/14 11:50:41;;;;;;;5.22;4.50;;;28.40;99.90;;;;;;5015812;28;20197;-77
2022/05/14 11:53:24;;;;;;;5.53;4.53;;;28.60;99.90;;;;;;5021374;28;20222;-74
2022/05/14 11:55:56;;;;;;;4.82;4.43;;;28.40;99.90;;;;;;5017527;28;20228;-76
2022/05/14 11:58:32;;;;;;;5.07;4.57;;;28.10;99.90;;;;;;5021592;28;20199;-75
2022/05/14 12:01:00;;;;;;;5.60;5.05;;;28.10;99.90;;;;;;5019870;28;20207;-74
2022/05/14 12:03:32;;;;;;;5.18;4.50;;;27.80;99.90;;;;;;5000874;28;20633;-75
2022/05/14 12:06:04;;;;;;;9.23;4.85;;;27.70;99.90;;;;;;5001056;28;20226;-75
2022/05/14 12:09:08;;;;;;;5.65;5.00;;;27.60;99.90;;;;;;5001272;28;20210;-73
2022/05/14 12:11:44;;;;;;;12.05;5.63;;;27.80;99.90;;;;;;4925437;28;20217;-71
2022/05/14 12:14:15;;;;;;;6.30;4.70;;;27.90;99.90;;;;;;4941777;28;20326;-74
2022/05/14 12:16:49;;;;;;;5.05;4.28;;;28.20;99.90;;;;;;4984189;28;20648;-72
2022/05/14 12:19:19;;;;;;;5.95;4.60;;;28.40;99.90;;;;;;5015565;28;20200;-72
2022/05/14 12:21:52;;;;;;;5.95;4.60;;;28.40;99.90;;;;;;5016657;28;20227;-72
2022/05/14 12:24:21;;;;;;;5.20;4.70;;;28.40;99.90;;;;;;5014300;28;20270;-72
2022/05/14 12:26:51;;;;;;;5.00;4.50;;;28.40;99.90;;;;;;5013423;28;20246;-72
2022/05/14 12:29:24;;;;;;;5.53;4.60;;;28.40;99.90;;;;;;5013818;28;20204;-71
2022/05/14 12:34:44;;;;;;;5.35;4.45;;;27.50;99.90;;;;;;5012857;28;20342;-70
2022/05/14 12:37:22;;;;;;;5.43;4.63;;;27.10;99.90;;;;;;5014183;28;20227;-71
2022/05/14 12:39:52;;;;;;;5.07;4.45;;;26.90;99.90;;;;;;5013467;28;20211;-71
2022/05/14 12:42:30;;;;;;;4.72;4.32;;;26.90;99.90;;;;;;5014854;28;20224;-71
2022/05/14 12:44:59;;;;;;;5.97;4.25;;;27.00;99.90;;;;;;5011360;28;20200;-71
2022/05/14 12:47:29;;;;;;;5.25;4.72;;;27.10;99.90;;;;;;5014512;28;20294;-72
2022/05/14 12:49:56;;;;;;;6.57;5.10;;;27.40;99.90;;;;;;5016665;28;20230;-72
2022/05/14 12:52:28;;;;;;;4.53;4.13;;;27.80;99.90;;;;;;5016056;28;20575;-72
2022/05/14 12:54:59;;;;;;;7.05;4.93;;;28.10;99.90;;;;;;5014315;28;20195;-72
2022/05/14 12:57:29;;;;;;;5.07;4.40;;;28.10;99.90;;;;;;5009036;28;20668;-72
2022/05/14 12:59:57;;;;;;;4.68;4.28;;;27.90;99.90;;;;;;5017910;28;20195;-72
2022/05/14 13:02:29;;;;;;;4.90;4.28;;;27.90;99.90;;;;;;5012130;28;20227;-71
2022/05/14 13:05:02;;;;;;;6.50;5.35;;;27.60;99.90;;;;;;5012707;28;20702;-71
2022/05/14 13:07:30;;;;;;;5.63;5.13;;;27.20;99.90;;;;;;5012742;28;20391;-71
2022/05/14 13:09:58;;;;;;;9.55;5.35;;;27.00;99.90;;;;;;5016508;28;20208;-71
2022/05/14 13:12:30;;;;;;;6.25;4.85;;;27.00;99.90;;;;;;5016905;28;20219;-71
2022/05/14 13:14:59;;;;;;;5.35;4.85;;;27.40;99.90;;;;;;5012226;28;20207;-72
2022/05/14 13:17:45;;;;;;;4.55;4.15;;;27.70;99.90;;;;;;5012388;28;20219;-71
2022/05/14 13:20:19;;;;;;;5.03;4.50;;;27.90;99.90;;;;;;5012168;28;20220;-71
2022/05/14 13:22:46;;;;;;;4.65;4.18;;;28.20;99.90;;;;;;5016699;28;20203;-71
2022/05/14 13:25:32;;;;;;;5.15;4.60;;;28.50;99.90;;;;;;5014253;28;20720;-70